createdAt,value
2018-04-30T00:00:49.543Z,62.50
2018-04-30T00:03:18.636Z,63.50
2018-04-30T00:05:47.627Z,64.30
2018-04-30T00:08:15.837Z,64.40
2018-04-30T00:10:44.076Z,65.10
2018-04-30T00:13:12.419Z,65.50
2018-04-30T00:15:41.518Z,66.90
2018-04-30T00:18:09.715Z,66.90
2018-04-30T00:20:37.891Z,66.80
2018-04-30T00:23:06.148Z,65.90
2018-04-30T00:25:34.324Z,65.10
2018-04-30T00:28:03.449Z,64.40
2018-04-30T00:30:31.622Z,64.30
2018-04-30T00:33:01.288Z,65.20
2018-04-30T00:35:29.507Z,65.10
2018-04-30T00:37:57.692Z,65.40
2018-04-30T00:40:26.651Z,66.50
2018-04-30T00:42:54.845Z,65.90
2018-04-30T00:45:22.988Z,65.00
2018-04-30T00:47:51.178Z,64.50
2018-04-30T00:50:19.330Z,63.70
2018-04-30T00:52:48.551Z,63.20
2018-04-30T00:55:16.714Z,63.20
2018-04-30T00:57:44.884Z,61.90
2018-04-30T01:00:13.040Z,60.70
2018-04-30T01:02:42.164Z,58.80
2018-04-30T01:05:10.316Z,58.60
2018-04-30T01:07:38.494Z,58.20
2018-04-30T01:10:06.651Z,57.80
2018-04-30T01:12:35.679Z,56.80
2018-04-30T01:15:03.839Z,56.70
2018-04-30T01:17:32.021Z,56.50
2018-04-30T01:20:00.172Z,55.70
2018-04-30T01:22:29.197Z,55.10
2018-04-30T01:24:57.336Z,54.50
2018-04-30T01:27:26.280Z,53.80
2018-04-30T01:29:54.428Z,53.80
2018-04-30T01:32:22.657Z,53.90
2018-04-30T01:34:50.812Z,53.50
2018-04-30T01:37:18.962Z,53.80
2018-04-30T01:39:47.138Z,54.10
2018-04-30T01:42:15.327Z,54.30
2018-04-30T01:44:43.601Z,54.50
2018-04-30T01:47:11.743Z,55.10
2018-04-30T01:49:39.923Z,56.10
2018-04-30T01:52:08.091Z,56.00
2018-04-30T01:54:36.271Z,56.70
2018-04-30T01:57:04.419Z,57.30
2018-04-30T01:59:33.351Z,58.30
2018-04-30T02:02:02.309Z,60.20
2018-04-30T02:04:30.487Z,60.70
2018-04-30T02:06:58.639Z,64.00
2018-04-30T02:09:27.588Z,68.10
2018-04-30T02:11:56.545Z,70.20
2018-04-30T02:14:24.723Z,69.70
2018-04-30T02:16:52.869Z,71.20
2018-04-30T02:19:21.815Z,71.40
2018-04-30T02:21:50.007Z,71.60
2018-04-30T02:24:18.191Z,72.20
2018-04-30T02:26:46.360Z,72.60
2018-04-30T02:29:14.531Z,74.20
2018-04-30T02:31:42.914Z,75.50
2018-04-30T02:34:11.084Z,73.90
2018-04-30T02:36:39.232Z,74.30
2018-04-30T02:39:07.407Z,74.10
2018-04-30T02:41:35.612Z,74.40
2018-04-30T02:44:03.788Z,72.80
2018-04-30T02:46:32.517Z,73.70
2018-04-30T02:49:00.688Z,74.00
2018-04-30T02:51:28.919Z,76.30
2018-04-30T02:53:57.091Z,72.90
2018-04-30T02:56:25.235Z,73.50
2018-04-30T02:58:53.406Z,74.20
2018-04-30T03:01:21.608Z,75.50
2018-04-30T03:03:49.787Z,75.00
2018-04-30T03:06:17.939Z,76.70
2018-04-30T03:08:46.112Z,74.20
2018-04-30T03:11:14.407Z,75.20
2018-04-30T03:13:42.579Z,76.00
2018-04-30T03:16:10.732Z,76.00
2018-04-30T03:18:38.903Z,75.80
2018-04-30T03:21:07.103Z,76.30
2018-04-30T03:23:35.272Z,77.20
2018-04-30T03:26:03.439Z,76.60
2018-04-30T03:28:31.620Z,75.80
2018-04-30T03:30:59.766Z,74.00
2018-04-30T03:33:27.920Z,76.30
2018-04-30T03:35:56.879Z,72.80
2018-04-30T03:38:25.027Z,72.70
2018-04-30T03:40:53.196Z,71.50
2018-04-30T03:43:21.338Z,70.20
2018-04-30T03:45:49.523Z,71.60
2018-04-30T03:48:17.672Z,70.20
2018-04-30T03:50:46.031Z,69.90
2018-04-30T03:53:14.179Z,72.50
2018-04-30T03:55:42.347Z,73.10
2018-04-30T03:58:10.507Z,73.30
2018-04-30T04:00:51.419Z,76.00
2018-04-30T04:03:31.606Z,75.10
2018-04-30T04:06:08.219Z,75.10
2018-04-30T04:08:36.368Z,75.10
2018-04-30T04:11:04.612Z,77.00
2018-04-30T04:13:32.755Z,77.50
2018-04-30T04:16:00.931Z,76.60
2018-04-30T04:18:29.079Z,75.60
2018-04-30T04:20:57.306Z,76.00
2018-04-30T04:23:25.450Z,74.80
2018-04-30T04:25:53.626Z,75.20
2018-04-30T04:28:21.775Z,76.10
2018-04-30T04:30:50.002Z,75.70
2018-04-30T04:33:18.171Z,76.40
2018-04-30T04:35:46.351Z,76.50
2018-04-30T04:38:15.263Z,77.30
2018-04-30T04:40:43.522Z,77.30
2018-04-30T04:43:11.944Z,77.10
2018-04-30T04:45:40.117Z,76.50
2018-04-30T04:48:08.264Z,77.40
2018-04-30T04:50:36.722Z,78.10
2018-04-30T04:53:04.863Z,79.10
2018-04-30T04:55:33.026Z,78.30
2018-04-30T04:58:01.174Z,79.60
2018-04-30T05:00:29.424Z,78.30
2018-04-30T05:02:58.355Z,78.40
2018-04-30T05:05:26.527Z,79.10
2018-04-30T05:07:54.670Z,78.40
2018-04-30T05:10:22.934Z,79.40
2018-04-30T05:12:51.082Z,80.10
2018-04-30T05:15:19.264Z,78.40
2018-04-30T05:17:47.410Z,78.60
2018-04-30T05:20:15.634Z,79.20
2018-04-30T05:22:43.784Z,79.60
2018-04-30T05:25:11.959Z,78.90
2018-04-30T05:27:40.107Z,79.00
2018-04-30T05:30:08.501Z,77.20
2018-04-30T05:32:36.643Z,77.90
2018-04-30T05:35:04.820Z,77.70
2018-04-30T05:37:32.961Z,76.90
2018-04-30T05:40:01.972Z,76.30
2018-04-30T05:42:30.973Z,76.40
2018-04-30T05:44:59.066Z,76.30
2018-04-30T05:47:27.238Z,76.10
2018-04-30T05:49:55.414Z,75.90
2018-04-30T05:52:23.582Z,75.70
2018-04-30T05:54:51.731Z,75.40
2018-04-30T05:57:20.670Z,76.40
2018-04-30T05:59:48.855Z,76.40
2018-04-30T06:02:17.027Z,76.60
2018-04-30T06:04:45.180Z,75.40
2018-04-30T06:07:13.355Z,74.90
2018-04-30T06:09:41.550Z,76.00
2018-04-30T06:12:09.730Z,75.90
2018-04-30T06:14:37.902Z,74.00
2018-04-30T06:17:06.063Z,73.50
2018-04-30T06:19:34.460Z,74.00
2018-04-30T06:22:04.242Z,73.90
2018-04-30T06:24:32.386Z,73.80
2018-04-30T06:27:01.335Z,73.50
2018-04-30T06:29:30.375Z,73.30
2018-04-30T06:31:58.553Z,73.30
2018-04-30T06:34:26.698Z,73.00
2018-04-30T06:36:55.642Z,72.90
2018-04-30T06:39:23.844Z,72.50
2018-04-30T06:41:52.010Z,70.70
2018-04-30T06:44:20.166Z,72.50
2018-04-30T06:46:48.335Z,70.00
2018-04-30T06:49:16.741Z,70.30
2018-04-30T06:51:44.910Z,70.90
2018-04-30T06:54:13.059Z,70.40
2018-04-30T06:56:41.227Z,68.40
2018-04-30T06:59:09.439Z,67.50
2018-04-30T07:01:37.622Z,69.00
2018-04-30T07:04:05.770Z,68.50
2018-04-30T07:06:34.791Z,67.30
2018-04-30T07:09:03.944Z,65.40
2018-04-30T07:11:32.107Z,65.40
2018-04-30T07:14:00.254Z,65.50
2018-04-30T07:16:29.187Z,63.70
2018-04-30T07:18:57.343Z,63.70
2018-04-30T07:21:25.511Z,63.90
2018-04-30T07:23:53.733Z,63.20
2018-04-30T07:26:21.896Z,63.20
2018-04-30T07:28:50.050Z,63.80
2018-04-30T07:31:18.224Z,63.60
2018-04-30T07:33:46.371Z,60.90
2018-04-30T07:36:15.307Z,61.60
2018-04-30T07:38:43.485Z,61.60
2018-04-30T07:41:11.626Z,62.00
2018-04-30T07:43:39.815Z,60.50
2018-04-30T07:46:07.967Z,60.70
2018-04-30T07:48:36.214Z,59.80
2018-04-30T07:51:04.371Z,61.00
2018-04-30T07:53:32.552Z,59.80
2018-04-30T07:56:00.703Z,58.40
2018-04-30T07:58:28.911Z,58.30
2018-04-30T08:00:57.317Z,57.70
2018-04-30T08:03:25.267Z,56.90
2018-04-30T08:05:53.423Z,56.20
2018-04-30T08:08:22.490Z,55.90
2018-04-30T08:10:50.630Z,55.80
2018-04-30T08:13:18.806Z,55.70
2018-04-30T08:15:46.963Z,56.00
2018-04-30T08:18:16.211Z,55.10
2018-04-30T08:20:44.400Z,55.00
2018-04-30T08:23:12.562Z,55.80
2018-04-30T08:25:40.718Z,54.50
2018-04-30T08:28:09.720Z,53.30
2018-04-30T08:30:37.870Z,53.30
2018-04-30T08:33:06.055Z,53.20
2018-04-30T08:35:34.211Z,51.60
2018-04-30T08:38:03.255Z,52.30
2018-04-30T08:40:31.406Z,51.70
2018-04-30T08:42:59.586Z,52.30
2018-04-30T08:45:27.742Z,52.10
2018-04-30T08:47:56.746Z,52.40
2018-04-30T08:50:24.902Z,52.40
2018-04-30T08:52:53.082Z,53.40
2018-04-30T08:55:21.244Z,53.10
2018-04-30T08:57:50.259Z,51.40
2018-04-30T09:00:18.510Z,51.40
2018-04-30T09:02:46.626Z,50.90
2018-04-30T09:05:14.791Z,51.20
2018-04-30T09:07:43.214Z,51.80
2018-04-30T09:10:12.135Z,51.70
2018-04-30T09:12:40.310Z,51.10
2018-04-30T09:15:08.475Z,50.20
2018-04-30T09:17:37.494Z,51.60
2018-04-30T09:20:05.647Z,50.90
2018-04-30T09:22:33.827Z,50.00
2018-04-30T09:25:01.974Z,49.70
2018-04-30T09:27:31.027Z,50.70
2018-04-30T09:29:59.178Z,50.40
2018-04-30T09:32:27.515Z,48.70
2018-04-30T09:34:55.759Z,50.30
2018-04-30T09:37:23.939Z,47.60
2018-04-30T09:39:52.118Z,48.70
2018-04-30T09:42:20.307Z,50.30
2018-04-30T09:44:49.263Z,49.90
2018-04-30T09:47:17.456Z,49.20
2018-04-30T09:49:45.634Z,49.10
2018-04-30T09:52:13.786Z,49.40
2018-04-30T09:54:41.961Z,47.70
2018-04-30T09:57:11.027Z,49.60
2018-04-30T09:59:39.211Z,49.00
2018-04-30T10:02:07.361Z,49.40
2018-04-30T10:04:36.336Z,49.40
2018-04-30T10:07:05.260Z,47.30
2018-04-30T10:09:33.422Z,47.20
2018-04-30T10:12:01.576Z,47.60
2018-04-30T10:14:29.750Z,47.40
2018-04-30T10:16:58.007Z,46.40
2018-04-30T10:19:26.176Z,47.40
2018-04-30T10:21:54.323Z,46.20
2018-04-30T10:24:22.525Z,47.10
2018-04-30T10:26:51.470Z,45.40
2018-04-30T10:29:19.650Z,45.40
2018-04-30T10:31:47.800Z,45.80
2018-04-30T10:34:16.738Z,45.00
2018-04-30T10:36:45.106Z,45.00
2018-04-30T10:39:13.289Z,44.40
2018-04-30T10:41:41.447Z,45.70
2018-04-30T10:44:09.622Z,45.10
2018-04-30T10:46:38.607Z,44.50
2018-04-30T10:49:06.775Z,44.50
2018-04-30T10:51:34.957Z,43.30
2018-04-30T10:54:03.127Z,42.70
2018-04-30T10:56:31.287Z,42.60
2018-04-30T10:58:59.461Z,42.30
2018-04-30T11:01:27.614Z,43.60
2018-04-30T11:03:56.562Z,44.10
2018-04-30T11:06:24.707Z,44.00
2018-04-30T11:08:52.879Z,42.50
2018-04-30T11:11:21.026Z,41.90
2018-04-30T11:13:49.975Z,42.00
2018-04-30T11:16:18.934Z,42.50
2018-04-30T11:18:47.111Z,42.20
2018-04-30T11:21:15.262Z,41.80
2018-04-30T11:23:44.214Z,41.70
2018-04-30T11:26:13.170Z,41.80
2018-04-30T11:28:41.340Z,41.00
2018-04-30T11:31:09.506Z,43.10
2018-04-30T11:33:38.427Z,41.70
2018-04-30T11:36:07.437Z,42.50
2018-04-30T11:38:35.594Z,42.50
2018-04-30T11:41:03.775Z,40.90
2018-04-30T11:43:31.930Z,40.10
2018-04-30T11:46:01.587Z,40.00
2018-04-30T11:48:29.748Z,40.10
2018-04-30T11:50:57.932Z,40.30
2018-04-30T11:53:26.103Z,39.60
2018-04-30T11:55:55.179Z,40.80
2018-04-30T11:58:23.335Z,40.80
2018-04-30T12:00:51.507Z,42.00
2018-04-30T12:03:19.675Z,42.10
2018-04-30T12:05:47.919Z,38.60
2018-04-30T12:08:16.067Z,42.00
2018-04-30T12:10:44.240Z,39.00
2018-04-30T12:13:12.402Z,38.60
2018-04-30T12:15:41.395Z,40.70
2018-04-30T12:18:09.546Z,40.70
2018-04-30T12:20:37.731Z,41.30
2018-04-30T12:23:05.894Z,40.20
2018-04-30T12:25:34.123Z,39.80
2018-04-30T12:28:03.794Z,38.70
2018-04-30T12:30:31.983Z,38.60
2018-04-30T12:33:00.148Z,39.70
2018-04-30T12:35:29.130Z,36.50
2018-04-30T12:37:57.287Z,36.50
2018-04-30T12:40:25.467Z,36.70
2018-04-30T12:42:53.634Z,38.60
2018-04-30T12:45:22.657Z,38.60
2018-04-30T12:47:50.830Z,38.40
2018-04-30T12:50:19.006Z,40.40
2018-04-30T12:52:47.175Z,38.20
2018-04-30T12:55:16.355Z,37.60
2018-04-30T12:57:44.505Z,37.60
2018-04-30T13:00:13.439Z,37.30
2018-04-30T13:02:41.598Z,37.30
2018-04-30T13:05:10.594Z,37.30
2018-04-30T13:07:38.754Z,37.30
2018-04-30T13:10:06.943Z,39.30
2018-04-30T13:12:35.095Z,39.60
2018-04-30T13:15:04.111Z,37.10
2018-04-30T13:17:32.269Z,37.00
2018-04-30T13:20:00.423Z,36.90
2018-04-30T13:22:29.401Z,39.50
2018-04-30T13:24:58.310Z,40.00
2018-04-30T13:27:27.251Z,37.40
2018-04-30T13:29:55.403Z,37.40
2018-04-30T13:32:23.579Z,37.30
2018-04-30T13:34:52.562Z,39.10
2018-04-30T13:37:20.782Z,39.10
2018-04-30T13:39:48.898Z,37.10
2018-04-30T13:42:17.079Z,37.90
2018-04-30T13:44:46.063Z,40.00
2018-04-30T13:47:14.250Z,40.00
2018-04-30T13:49:42.403Z,40.70
2018-04-30T13:52:11.339Z,40.10
2018-04-30T13:54:40.419Z,41.70
2018-04-30T13:57:08.583Z,41.70
2018-04-30T13:59:36.763Z,41.10
2018-04-30T14:02:05.671Z,39.20
2018-04-30T14:04:34.639Z,39.10
2018-04-30T14:07:02.802Z,38.90
2018-04-30T14:09:30.960Z,39.80
2018-04-30T14:11:59.899Z,37.00
2018-04-30T14:14:28.874Z,38.60
2018-04-30T14:16:57.050Z,38.60
2018-04-30T14:19:25.212Z,37.60
2018-04-30T14:21:53.401Z,37.80
2018-04-30T14:24:22.382Z,37.60
2018-04-30T14:26:50.563Z,37.50
2018-04-30T14:29:18.735Z,39.40
2018-04-30T14:31:46.943Z,39.10
2018-04-30T14:34:15.071Z,40.00
2018-04-30T14:36:43.256Z,41.30
2018-04-30T14:39:11.404Z,39.30
2018-04-30T14:41:40.352Z,40.20
2018-04-30T14:44:08.521Z,40.20
2018-04-30T14:46:36.704Z,39.60
2018-04-30T14:49:04.864Z,40.00
2018-04-30T14:51:33.047Z,40.30
2018-04-30T14:54:01.211Z,39.10
2018-04-30T14:56:29.387Z,40.60
2018-04-30T14:58:57.546Z,40.80
2018-04-30T15:01:25.732Z,40.10
2018-04-30T15:03:54.699Z,40.40
2018-04-30T15:06:22.892Z,40.30
2018-04-30T15:08:51.073Z,40.60
2018-04-30T15:11:19.259Z,40.30
2018-04-30T15:13:48.319Z,41.10
2018-04-30T15:16:16.477Z,40.60
2018-04-30T15:18:44.662Z,40.00
2018-04-30T15:21:12.823Z,40.20
2018-04-30T15:23:41.095Z,41.10
2018-04-30T15:26:10.019Z,42.20
2018-04-30T15:28:38.194Z,42.20
2018-04-30T15:31:06.352Z,41.30
2018-04-30T15:33:35.373Z,40.20
2018-04-30T15:36:03.526Z,40.20
2018-04-30T15:38:31.710Z,39.70
2018-04-30T15:41:00.785Z,40.10
2018-04-30T15:43:29.822Z,39.80
2018-04-30T15:45:57.981Z,39.70
2018-04-30T15:48:26.159Z,40.20
2018-04-30T15:50:54.320Z,41.40
2018-04-30T15:53:23.328Z,40.90
2018-04-30T15:55:51.486Z,40.80
2018-04-30T15:58:19.671Z,38.60
2018-04-30T16:00:47.830Z,38.70
2018-04-30T16:03:17.055Z,37.80
2018-04-30T16:05:45.237Z,37.80
2018-04-30T16:08:13.414Z,39.90
2018-04-30T16:10:41.582Z,40.20
2018-04-30T16:13:10.570Z,38.80
2018-04-30T16:15:38.726Z,38.20
2018-04-30T16:18:06.913Z,39.10
2018-04-30T16:20:35.072Z,39.10
2018-04-30T16:23:04.075Z,39.20
2018-04-30T16:25:32.239Z,39.10
2018-04-30T16:28:00.432Z,39.20
2018-04-30T16:30:28.587Z,38.50
2018-04-30T16:32:57.583Z,39.30
2018-04-30T16:35:25.746Z,39.30
2018-04-30T16:37:53.931Z,39.40
2018-04-30T16:40:22.089Z,38.50
2018-04-30T16:42:51.106Z,39.40
2018-04-30T16:45:19.275Z,39.40
2018-04-30T16:47:47.576Z,39.60
2018-04-30T16:50:15.715Z,40.00
2018-04-30T16:52:44.718Z,39.70
2018-04-30T16:55:12.894Z,39.60
2018-04-30T16:57:41.075Z,39.90
2018-04-30T17:00:09.232Z,40.00
2018-04-30T17:02:40.183Z,40.00
2018-04-30T17:05:08.362Z,40.00
2018-04-30T17:07:36.535Z,40.70
2018-04-30T17:10:04.727Z,40.40
2018-04-30T17:12:33.784Z,40.30
2018-04-30T17:15:01.960Z,40.90
2018-04-30T17:17:30.177Z,40.60
2018-04-30T17:19:58.305Z,41.00
2018-04-30T17:22:27.291Z,41.50
2018-04-30T17:24:55.476Z,41.20
2018-04-30T17:27:23.634Z,41.90
2018-04-30T17:29:51.815Z,42.00
2018-04-30T17:32:20.811Z,42.80
2018-04-30T17:34:48.993Z,42.80
2018-04-30T17:37:17.152Z,43.40
2018-04-30T17:39:45.326Z,43.20
2018-04-30T17:42:14.337Z,43.00
2018-04-30T17:44:42.511Z,42.90
2018-04-30T17:47:10.660Z,41.60
2018-04-30T17:49:39.600Z,43.30
2018-04-30T17:52:07.793Z,43.30
2018-04-30T17:54:35.967Z,44.10
2018-04-30T17:57:05.627Z,45.90
2018-04-30T17:59:33.805Z,45.90
2018-04-30T18:02:02.803Z,47.30
2018-04-30T18:04:30.991Z,47.30
2018-04-30T18:06:59.301Z,46.70
2018-04-30T18:09:27.341Z,48.30
2018-04-30T18:11:57.122Z,48.90
2018-04-30T18:14:25.309Z,48.80
2018-04-30T18:16:53.467Z,48.00
2018-04-30T18:19:22.414Z,49.10
2018-04-30T18:21:50.559Z,49.10
2018-04-30T18:24:18.732Z,50.50
2018-04-30T18:26:46.975Z,49.40
2018-04-30T18:29:15.075Z,49.80
2018-04-30T18:31:43.222Z,50.70
2018-04-30T18:34:11.395Z,51.40
2018-04-30T18:36:39.547Z,50.80
2018-04-30T18:39:08.489Z,52.70
2018-04-30T18:41:37.464Z,51.80
2018-04-30T18:44:05.635Z,51.20
2018-04-30T18:46:33.794Z,49.30
2018-04-30T18:49:02.734Z,48.20
2018-04-30T18:51:31.806Z,48.40
2018-04-30T18:53:59.994Z,48.40
2018-04-30T18:56:28.147Z,49.40
2018-04-30T18:58:56.308Z,47.10
2018-04-30T19:01:25.327Z,46.60
2018-04-30T19:03:53.478Z,46.60
2018-04-30T19:06:21.671Z,46.40
2018-04-30T19:08:49.826Z,47.30
2018-04-30T19:11:18.099Z,47.50
2018-04-30T19:13:46.255Z,48.10
2018-04-30T19:16:15.202Z,48.00
2018-04-30T19:18:43.350Z,48.00
2018-04-30T19:21:11.587Z,48.60
2018-04-30T19:23:40.519Z,51.10
2018-04-30T19:26:08.719Z,51.00
2018-04-30T19:28:36.983Z,52.00
2018-04-30T19:31:06.072Z,51.20
2018-04-30T19:33:34.218Z,51.10
2018-04-30T19:36:02.403Z,51.40
2018-04-30T19:38:30.616Z,50.70
2018-04-30T19:40:59.587Z,49.30
2018-04-30T19:43:27.733Z,49.20
2018-04-30T19:45:55.911Z,49.50
2018-04-30T19:48:24.065Z,49.10
2018-04-30T19:50:53.104Z,49.20
2018-04-30T19:53:21.277Z,49.20
2018-04-30T19:55:49.458Z,49.40
2018-04-30T19:58:17.611Z,50.40
2018-04-30T20:00:46.631Z,51.90
2018-04-30T20:03:14.779Z,51.90
2018-04-30T20:05:42.959Z,51.70
2018-04-30T20:08:11.110Z,51.70
2018-04-30T20:10:39.358Z,52.30
2018-04-30T20:13:07.519Z,52.10
2018-04-30T20:15:35.689Z,52.40
2018-04-30T20:18:03.839Z,52.70
2018-04-30T20:20:32.203Z,52.90
2018-04-30T20:23:00.292Z,53.40
2018-04-30T20:25:28.467Z,53.70
2018-04-30T20:27:56.615Z,53.90
2018-04-30T20:30:25.631Z,55.00
2018-04-30T20:32:53.814Z,54.90
2018-04-30T20:35:21.987Z,55.50
2018-04-30T20:37:50.146Z,55.60
2018-04-30T20:40:19.152Z,56.30
2018-04-30T20:42:47.311Z,56.20
2018-04-30T20:45:15.458Z,57.10
2018-04-30T20:47:43.643Z,56.80
2018-04-30T20:50:12.630Z,58.00
2018-04-30T20:52:40.803Z,57.60
2018-04-30T20:55:09.715Z,56.80
2018-04-30T20:57:37.895Z,56.80
2018-04-30T21:00:06.153Z,57.40
2018-04-30T21:02:34.279Z,57.80
2018-04-30T21:05:02.432Z,57.60
2018-04-30T21:07:30.619Z,58.40
2018-04-30T21:09:58.882Z,58.00
2018-04-30T21:12:27.047Z,58.20
2018-04-30T21:14:55.198Z,58.60
2018-04-30T21:17:23.387Z,58.60
2018-04-30T21:19:52.366Z,58.20
2018-04-30T21:22:20.547Z,58.40
2018-04-30T21:24:48.708Z,58.50
2018-04-30T21:27:16.882Z,58.40
2018-04-30T21:29:45.878Z,58.70
2018-04-30T21:32:14.060Z,58.20
2018-04-30T21:34:42.247Z,58.30
2018-04-30T21:37:10.407Z,58.80
2018-04-30T21:39:40.082Z,59.10
2018-04-30T21:42:08.255Z,59.50
2018-04-30T21:44:36.411Z,58.90
2018-04-30T21:47:04.595Z,59.20
2018-04-30T21:49:32.774Z,59.20
2018-04-30T21:52:00.955Z,59.20
2018-04-30T21:54:29.871Z,59.10
2018-04-30T21:56:58.056Z,59.00
2018-04-30T21:59:26.218Z,59.20
2018-04-30T22:01:54.391Z,59.10
2018-04-30T22:04:22.545Z,59.30
2018-04-30T22:06:51.490Z,60.20
2018-04-30T22:09:19.811Z,60.20
2018-04-30T22:11:47.976Z,60.00
2018-04-30T22:14:16.136Z,60.00
2018-04-30T22:16:44.304Z,60.10
2018-04-30T22:19:13.258Z,61.10
2018-04-30T22:21:41.453Z,61.00
2018-04-30T22:24:09.590Z,61.50
2018-04-30T22:26:38.544Z,61.80
2018-04-30T22:29:06.762Z,61.80
2018-04-30T22:31:34.948Z,61.70
2018-04-30T22:34:03.100Z,61.40
2018-04-30T22:36:31.279Z,61.40
2018-04-30T22:39:00.290Z,61.50
2018-04-30T22:41:28.442Z,61.50
2018-04-30T22:43:57.388Z,61.40
2018-04-30T22:46:25.536Z,61.30
2018-04-30T22:48:55.979Z,61.60
2018-04-30T22:51:24.144Z,60.70
2018-04-30T22:53:52.322Z,61.30
2018-04-30T22:56:20.480Z,61.40
2018-04-30T22:58:48.718Z,61.70
2018-04-30T23:01:17.662Z,61.60
2018-04-30T23:03:45.834Z,62.10
2018-04-30T23:06:13.987Z,62.50
2018-04-30T23:08:42.234Z,63.50
2018-04-30T23:11:10.379Z,63.50
2018-04-30T23:13:38.556Z,63.50
2018-04-30T23:16:06.699Z,64.00
2018-04-30T23:18:34.935Z,64.20
2018-04-30T23:21:03.846Z,63.10
2018-04-30T23:23:32.027Z,62.90
2018-04-30T23:26:00.191Z,63.30
2018-04-30T23:28:28.443Z,62.90
2018-04-30T23:30:56.591Z,63.50
2018-04-30T23:33:24.763Z,63.00
2018-04-30T23:35:52.915Z,63.20
2018-04-30T23:38:21.141Z,63.50
2018-04-30T23:40:49.296Z,62.30
2018-04-30T23:43:17.462Z,62.70
2018-04-30T23:45:45.622Z,62.60
2018-04-30T23:48:13.834Z,63.20
2018-04-30T23:50:41.986Z,63.20
2018-04-30T23:53:10.161Z,63.00
2018-04-30T23:55:38.311Z,63.00
2018-04-30T23:58:06.490Z,62.80
